EW6087 Weather Reports


time (UTC)temp
F
wind
direction
speed
knots
gust
knots
rain 1hr
in
rain 24hr
in
rain mn
in
humidity
%
barometer
mb
20260506061538 49 355 0.0 2.6 0.00 0.00 0.00 74 1012.9
20260506044508 49 109 0.0 2.6 0.00 0.00 0.00 72 1012.7
20260506043007 49 334 0.0 3.5 0.00 0.00 0.00 74 1012.8
20260506041503 49 23 0.0 2.6 0.00 0.00 0.00 75 1012.6
20260506040002 49 9 0.9 6.1 0.00 0.00 0.00 77 1012.6
20260506034502 49 312 0.9 4.3 0.00 0.00 0.00 79 1012.6
20260506033058 49 236 0.9 7.0 0.00 0.00 0.00 80 1012.1
20260506031513 49 62 0.9 4.3 0.00 0.00 0.00 80 1011.4
20260506030018 49 22 0.9 6.1 0.00 0.00 0.00 81 1011.4
20260506024530 49 69 0.9 11.3 0.00 0.00 0.00 82 1011.6
20260506023009 49 31 0.9 7.0 0.00 0.00 0.00 82 1011.9
20260506021507 49 82 0.9 5.2 0.00 0.00 0.00 82 1011.5
20260506020007 49 17 1.7 7.0 0.00 0.00 0.00 83 1011.1
20260506014507 49 92 0.9 6.1 0.00 0.00 0.00 82 1011.2
20260506013001 50 34 0.0 3.5 0.00 0.00 0.00 81 1010.9
20260506011607 50 69 0.0 4.3 0.00 0.00 0.00 81 1010.8
20260506010057 50 23 0.0 5.2 0.00 0.00 0.00 81 1010.4
20260506004553 50 5 0.0 5.2 0.00 0.00 0.00 80 1009.8
20260506003052 50 82 0.9 4.3 0.00 0.00 0.00 79 1009.5
20260506001551 51 5 0.9 7.8 0.00 0.00 0.00 78 1009.3
20260506000048 51 317 0.0 3.5 0.00 0.00 0.00 77 1009.4
20260505234559 51 343 1.7 7.8 0.00 0.00 0.00 75 1009.0
20260505233046 52 325 0.9 5.2 0.00 0.00 0.00 75 1009.7
20260505231600 52 335 0.0 0.0 0.00 0.00 0.00 74 1009.4
20260505230040 52 61 0.0 0.0 0.00 0.00 0.00 73 1008.7
20260505224538 53 67 0.0 0.0 0.00 0.00 0.00 73 1008.8
20260505223037 53 44 0.0 0.0 0.00 0.00 0.00 74 1008.7
20260505221538 53 317 0.0 0.0 0.00 0.00 0.00 74 1008.3
20260505220037 54 46 0.0 0.0 0.00 0.00 0.00 73 1008.5
20260505214551 54 340 0.0 0.0 0.00 0.00 0.00 72 1007.7
20260505213031 54 5 0.0 0.0 0.00 0.00 0.00 73 1007.7
20260505211534 54 343 0.0 0.0 0.00 0.00 0.00 73 1007.8
20260505210030 54 290 0.0 0.0 0.00 0.00 0.00 74 1007.0
20260505204533 54 355 0.0 0.0 0.00 0.00 0.00 73 1008.2
20260505203026 55 303 0.0 0.0 0.00 0.00 0.00 74 1007.6
20260505201525 55 5 0.0 0.0 0.00 0.00 0.00 74 1007.1
20260505200030 54 83 0.0 0.0 0.00 0.00 0.00 75 1007.2
20260505194524 54 322 0.0 0.0 0.00 0.00 0.00 77 1007.3
20260505193023 54 5 0.0 0.0 0.00 0.00 0.00 78 1007.0
20260505191522 55 182 0.0 0.0 0.00 0.00 0.00 80 1006.9
20260505190026 55 5 0.0 0.0 0.00 0.00 0.00 79 1007.0
20260505184519 56 5 0.0 0.0 0.00 0.00 0.00 79 1006.6
20260505183021 56 37 0.0 0.0 0.00 0.00 0.00 77 1006.6
20260505181512 57 45 0.0 0.0 0.00 0.00 0.00 77 1006.3
20260505180014 57 336 0.0 0.0 0.00 0.00 0.00 79 1006.1
20260505174508 57 46 0.0 0.0 0.00 0.00 0.00 79 1005.7
20260505173005 57 320 0.0 0.0 0.00 0.00 0.00 80 1005.4
20260505171506 57 196 0.0 0.0 0.00 0.00 0.00 80 1005.0
20260505170002 57 5 0.0 0.0 0.00 0.00 0.00 81 1005.0
20260505164606 57 286 0.0 0.0 0.00 0.00 0.00 82 1004.7
20260505163056 57 5 0.0 0.0 0.00 0.00 0.00 81 1004.2
20260505161602 58 5 0.0 0.0 0.00 0.00 0.00 81 1003.6
20260505153043 61 220 0.0 0.0 0.00 0.00 0.00 82 1002.4
20260505151537 64 30 0.0 0.0 0.00 0.00 0.00 79 1001.9
20260505124518 68 126 0.0 0.0 0.00 0.00 0.00 83 999.8
20260505123007 68 130 0.0 0.0 0.00 0.00 0.00 83 999.6
20260505121503 68 136 0.0 0.0 0.00 0.00 0.00 81 999.3
20260505120059 68 259 0.0 0.0 0.00 0.00 0.00 80 999.2
20260505114600 69 259 0.0 0.0 0.00 0.00 0.00 78 999.0
20260505113113 70 259 0.0 0.0 0.00 0.00 0.00 77 998.5
20260505111552 70 259 0.0 0.0 0.00 0.00 0.00 76 997.8
20260505101552 71 202 0.0 0.0 0.00 0.00 0.00 75 996.9
20260505100045 71 167 0.0 0.0 0.00 0.00 0.00 75 996.9
20260505094543 72 138 0.0 0.0 0.00 0.00 0.00 74 996.9
20260505093055 72 167 0.0 0.0 0.00 0.00 0.00 74 996.8
20260505091551 72 246 0.0 0.0 0.00 0.00 0.00 74 996.8
20260505090043 72 194 0.0 0.0 0.00 0.00 0.00 74 997.0
20260505084541 72 117 0.0 0.0 0.00 0.00 0.00 74 997.1
20260505083038 72 205 0.0 0.0 0.00 0.00 0.00 74 997.3
20260505081537 72 221 0.0 0.0 0.00 0.00 0.00 75 997.5
20260505080036 72 215 0.0 0.0 0.00 0.00 0.00 75 997.6
20260505074533 72 150 0.0 0.0 0.00 0.00 0.00 75 997.7
20260505073034 72 201 0.0 0.0 0.00 0.00 0.00 74 997.8
20260505071534 72 5 0.0 0.0 0.00 0.00 0.00 74 998.0